createdAt,value
2019-05-23T00:00:01.202Z,99.90
2019-05-23T00:02:41.963Z,99.90
2019-05-23T00:05:19.660Z,99.90
2019-05-23T00:07:49.011Z,99.90
2019-05-23T00:10:25.121Z,99.90
2019-05-23T00:13:01.285Z,99.90
2019-05-23T00:15:36.040Z,99.90
2019-05-23T00:18:06.003Z,99.90
2019-05-23T00:20:35.797Z,99.90
2019-05-23T00:23:07.101Z,99.90
2019-05-23T00:25:36.771Z,99.90
2019-05-23T00:28:07.003Z,99.90
2019-05-23T00:30:53.924Z,99.90
2019-05-23T00:33:27.930Z,99.90
2019-05-23T00:35:57.514Z,99.90
2019-05-23T00:38:26.875Z,99.90
2019-05-23T00:40:56.127Z,99.90
2019-05-23T00:43:25.652Z,99.90
2019-05-23T00:45:55.433Z,99.90
2019-05-23T00:48:24.977Z,99.90
2019-05-23T00:50:54.238Z,99.90
2019-05-23T00:53:24.478Z,99.90
2019-05-23T00:55:54.550Z,99.90
2019-05-23T00:58:25.345Z,99.90
2019-05-23T01:00:56.342Z,99.90
2019-05-23T01:03:27.933Z,99.90
2019-05-23T01:05:57.251Z,99.90
2019-05-23T01:08:26.661Z,99.90
2019-05-23T01:10:56.162Z,99.90
2019-05-23T01:13:27.203Z,99.90
2019-05-23T01:15:56.033Z,99.90
2019-05-23T01:18:25.246Z,99.90
2019-05-23T01:21:12.043Z,99.90
2019-05-23T01:23:44.765Z,99.90
2019-05-23T01:26:14.842Z,99.90
2019-05-23T01:28:44.368Z,99.90
2019-05-23T01:31:18.315Z,99.90
2019-05-23T01:33:49.505Z,99.90
2019-05-23T01:36:20.169Z,99.90
2019-05-23T01:38:49.309Z,99.90
2019-05-23T01:41:18.475Z,99.90
2019-05-23T01:43:49.534Z,99.90
2019-05-23T01:46:18.996Z,99.90
2019-05-23T01:48:49.239Z,99.90
2019-05-23T01:51:18.599Z,99.90
2019-05-23T01:53:48.387Z,99.90
2019-05-23T01:56:17.456Z,99.90
2019-05-23T01:58:46.885Z,99.90
2019-05-23T02:01:15.819Z,99.90
2019-05-23T02:03:46.318Z,99.90
2019-05-23T02:06:15.290Z,99.90
2019-05-23T02:08:44.365Z,99.90
2019-05-23T02:11:13.441Z,99.90
2019-05-23T02:13:43.962Z,99.90
2019-05-23T02:16:14.884Z,99.90
2019-05-23T02:18:45.767Z,99.90
2019-05-23T02:21:19.230Z,99.90
2019-05-23T02:23:48.914Z,99.90
2019-05-23T02:26:22.247Z,99.90
2019-05-23T02:28:52.519Z,99.90
2019-05-23T02:31:22.155Z,99.90
2019-05-23T02:33:51.381Z,99.90
2019-05-23T02:36:21.401Z,99.90
2019-05-23T02:39:01.026Z,99.90
2019-05-23T02:41:52.879Z,99.90
2019-05-23T02:44:24.448Z,99.90
2019-05-23T02:47:16.986Z,99.90
2019-05-23T02:49:49.135Z,99.90
2019-05-23T02:52:46.296Z,99.90
2019-05-23T02:55:27.692Z,99.90
2019-05-23T02:58:01.205Z,99.90
2019-05-23T03:00:54.190Z,99.90
2019-05-23T03:03:24.717Z,99.90
2019-05-23T03:05:55.521Z,99.90
2019-05-23T03:08:25.499Z,99.90
2019-05-23T03:11:17.353Z,99.90
2019-05-23T03:13:48.394Z,99.90
2019-05-23T03:16:21.932Z,99.90
2019-05-23T03:18:57.818Z,99.90
2019-05-23T03:21:26.714Z,99.90
2019-05-23T03:23:58.308Z,99.90
2019-05-23T03:27:10.019Z,99.90
2019-05-23T03:29:43.691Z,99.90
2019-05-23T03:32:36.897Z,99.90
2019-05-23T03:35:06.346Z,99.90
2019-05-23T03:37:36.561Z,99.90
2019-05-23T03:40:05.687Z,99.90
2019-05-23T03:42:34.982Z,99.90
2019-05-23T03:45:05.383Z,99.90
2019-05-23T03:47:34.675Z,99.90
2019-05-23T03:50:05.171Z,99.90
2019-05-23T03:52:35.126Z,99.90
2019-05-23T03:55:05.663Z,99.90
2019-05-23T03:57:34.572Z,99.90
2019-05-23T04:00:03.589Z,99.90
2019-05-23T04:02:32.366Z,99.90
2019-05-23T04:05:01.786Z,99.90
2019-05-23T04:07:31.948Z,99.90
2019-05-23T04:10:01.274Z,99.90
2019-05-23T04:12:30.510Z,99.90
2019-05-23T04:14:59.442Z,99.90
2019-05-23T04:17:28.272Z,99.90
2019-05-23T04:19:57.110Z,99.90
2019-05-23T04:22:26.722Z,99.90
2019-05-23T04:24:55.961Z,99.90
2019-05-23T04:27:25.149Z,99.90
2019-05-23T04:29:54.168Z,99.90
2019-05-23T04:32:23.243Z,99.90
2019-05-23T04:34:52.582Z,99.90
2019-05-23T04:37:22.061Z,99.90
2019-05-23T04:39:51.314Z,99.90
2019-05-23T04:42:20.338Z,99.90
2019-05-23T04:44:49.662Z,99.90
2019-05-23T04:47:19.692Z,99.90
2019-05-23T04:49:48.451Z,99.90
2019-05-23T04:52:17.600Z,99.90
2019-05-23T04:54:46.683Z,99.90
2019-05-23T04:57:16.647Z,99.90
2019-05-23T04:59:46.651Z,99.90
2019-05-23T05:02:25.686Z,99.90
2019-05-23T05:04:46.541Z,99.90
2019-05-23T05:07:15.733Z,99.90
2019-05-23T05:09:46.599Z,99.90
2019-05-23T05:12:17.149Z,99.90
2019-05-23T05:14:46.015Z,99.90
2019-05-23T05:17:14.826Z,99.90
2019-05-23T05:19:43.667Z,99.90
2019-05-23T05:22:12.638Z,99.90
2019-05-23T05:24:41.369Z,99.90
2019-05-23T05:27:10.930Z,99.90
2019-05-23T05:29:40.139Z,99.90
2019-05-23T05:32:10.275Z,99.90
2019-05-23T05:34:39.473Z,99.90
2019-05-23T05:37:08.372Z,99.90
2019-05-23T05:39:37.141Z,99.90
2019-05-23T05:42:08.574Z,99.90
2019-05-23T05:44:38.405Z,99.90
2019-05-23T05:47:08.792Z,99.90
2019-05-23T05:49:41.944Z,99.90
2019-05-23T05:52:08.524Z,99.90
2019-05-23T05:54:37.490Z,99.90
2019-05-23T05:57:06.564Z,99.90
2019-05-23T05:59:35.672Z,99.90
2019-05-23T06:02:08.177Z,99.90
2019-05-23T06:04:37.493Z,99.90
2019-05-23T06:07:25.271Z,99.90
2019-05-23T06:09:54.804Z,99.90
2019-05-23T06:12:23.869Z,99.90
2019-05-23T06:14:52.906Z,99.90
2019-05-23T06:17:23.406Z,99.90
2019-05-23T06:19:52.487Z,99.90
2019-05-23T06:22:22.324Z,99.90
2019-05-23T06:24:54.295Z,99.90
2019-05-23T06:27:22.423Z,99.90
2019-05-23T06:29:51.341Z,99.90
2019-05-23T06:32:22.198Z,99.90
2019-05-23T06:34:52.473Z,99.90
2019-05-23T06:37:22.229Z,99.90
2019-05-23T06:39:51.219Z,99.90
2019-05-23T06:42:20.290Z,99.90
2019-05-23T06:44:51.603Z,99.90
2019-05-23T06:47:20.739Z,99.90
2019-05-23T06:49:49.547Z,99.90
2019-05-23T06:52:21.514Z,99.90
2019-05-23T06:54:50.301Z,99.90
2019-05-23T06:57:19.653Z,99.90
2019-05-23T06:59:48.833Z,99.90
2019-05-23T07:02:17.962Z,99.90
2019-05-23T07:04:48.117Z,99.90
2019-05-23T07:07:17.416Z,99.90
2019-05-23T07:09:47.454Z,99.90
2019-05-23T07:12:16.587Z,99.90
2019-05-23T07:14:45.492Z,99.90
2019-05-23T07:17:17.857Z,99.90
2019-05-23T07:19:47.062Z,99.90
2019-05-23T07:22:19.019Z,96.70
2019-05-23T07:24:57.326Z,94.40
2019-05-23T07:27:18.757Z,95.30
2019-05-23T07:29:47.645Z,93.80
2019-05-23T07:32:16.581Z,92.90
2019-05-23T07:34:45.582Z,93.30
2019-05-23T07:37:14.651Z,94.00
2019-05-23T07:39:43.379Z,94.60
2019-05-23T07:42:12.633Z,93.00
2019-05-23T07:44:48.210Z,93.50
2019-05-23T07:47:13.370Z,95.20
2019-05-23T07:49:42.311Z,94.20
2019-05-23T07:52:11.071Z,94.10
2019-05-23T07:54:48.638Z,93.20
2019-05-23T07:57:18.067Z,92.30
2019-05-23T07:59:47.513Z,94.30
2019-05-23T08:02:28.720Z,94.40
2019-05-23T08:04:58.179Z,93.10
2019-05-23T08:07:32.500Z,91.90
2019-05-23T08:09:59.137Z,93.00
2019-05-23T08:12:28.190Z,91.40
2019-05-23T08:14:57.098Z,93.00
2019-05-23T08:17:26.084Z,93.60
2019-05-23T08:19:55.192Z,93.10
2019-05-23T08:22:25.502Z,93.60
2019-05-23T08:24:54.507Z,92.50
2019-05-23T08:27:23.670Z,91.30
2019-05-23T08:29:52.830Z,94.10
2019-05-23T08:32:21.957Z,93.30
2019-05-23T08:34:51.030Z,93.70
2019-05-23T08:37:20.267Z,91.10
2019-05-23T08:39:50.064Z,90.70
2019-05-23T08:42:20.651Z,90.90
2019-05-23T08:44:49.537Z,91.50
2019-05-23T08:47:18.613Z,92.20
2019-05-23T08:49:47.418Z,91.20
2019-05-23T08:52:16.328Z,91.90
2019-05-23T08:54:45.514Z,91.40
2019-05-23T08:57:15.032Z,92.30
2019-05-23T08:59:44.665Z,90.50
2019-05-23T09:02:14.655Z,86.60
2019-05-23T09:05:02.150Z,88.40
2019-05-23T09:07:14.714Z,89.80
2019-05-23T09:09:43.804Z,91.30
2019-05-23T09:12:12.626Z,89.20
2019-05-23T09:14:41.639Z,90.50
2019-05-23T09:17:10.765Z,88.50
2019-05-23T09:19:40.388Z,83.80
2019-05-23T09:22:09.394Z,89.20
2019-05-23T09:24:38.546Z,89.00
2019-05-23T09:27:08.960Z,87.20
2019-05-23T09:29:38.886Z,85.50
2019-05-23T09:32:09.081Z,84.20
2019-05-23T09:34:38.124Z,87.30
2019-05-23T09:37:08.164Z,85.80
2019-05-23T09:39:38.808Z,82.60
2019-05-23T09:42:11.764Z,78.60
2019-05-23T09:44:38.539Z,77.60
2019-05-23T09:47:07.543Z,83.90
2019-05-23T09:49:36.603Z,79.60
2019-05-23T09:52:05.983Z,76.30
2019-05-23T09:54:35.009Z,75.50
2019-05-23T09:57:05.484Z,74.10
2019-05-23T09:59:34.373Z,77.90
2019-05-23T10:02:05.012Z,76.60
2019-05-23T10:04:33.978Z,73.90
2019-05-23T10:07:03.086Z,76.20
2019-05-23T10:09:31.922Z,76.40
2019-05-23T10:12:01.138Z,73.90
2019-05-23T10:14:33.383Z,74.90
2019-05-23T10:17:02.194Z,71.60
2019-05-23T10:19:31.298Z,64.40
2019-05-23T10:22:00.155Z,70.30
2019-05-23T10:24:29.317Z,70.40
2019-05-23T10:26:58.302Z,67.50
2019-05-23T10:29:27.088Z,67.40
2019-05-23T10:31:55.859Z,65.80
2019-05-23T10:34:24.724Z,64.30
2019-05-23T10:36:53.895Z,67.40
2019-05-23T10:39:23.150Z,66.80
2019-05-23T10:41:52.468Z,65.60
2019-05-23T10:44:21.799Z,65.50
2019-05-23T10:46:50.572Z,71.20
2019-05-23T10:49:19.684Z,67.60
2019-05-23T10:51:48.569Z,62.70
2019-05-23T10:54:17.408Z,65.70
2019-05-23T10:56:46.142Z,61.40
2019-05-23T10:59:15.573Z,59.80
2019-05-23T11:01:45.365Z,61.10
2019-05-23T11:04:14.415Z,63.80
2019-05-23T11:06:43.651Z,56.40
2019-05-23T11:09:12.449Z,58.80
2019-05-23T11:11:41.520Z,62.10
2019-05-23T11:14:11.662Z,58.70
2019-05-23T11:16:41.143Z,57.30
2019-05-23T11:19:10.260Z,59.60
2019-05-23T11:21:39.229Z,57.80
2019-05-23T11:24:10.853Z,56.10
2019-05-23T11:26:39.975Z,56.50
2019-05-23T11:29:08.805Z,54.90
2019-05-23T11:31:37.631Z,56.40
2019-05-23T11:34:06.742Z,56.60
2019-05-23T11:36:36.889Z,51.70
2019-05-23T11:39:08.135Z,50.40
2019-05-23T11:41:37.109Z,50.00
2019-05-23T11:44:06.459Z,47.20
2019-05-23T11:46:36.086Z,50.00
2019-05-23T11:49:06.399Z,50.20
2019-05-23T11:51:35.750Z,55.70
2019-05-23T11:54:08.415Z,54.30
2019-05-23T11:56:37.062Z,52.60
2019-05-23T11:59:06.587Z,53.80
2019-05-23T12:01:40.707Z,47.20
2019-05-23T12:04:12.758Z,50.70
2019-05-23T12:07:06.233Z,46.40
2019-05-23T12:09:36.603Z,47.60
2019-05-23T12:12:05.583Z,50.40
2019-05-23T12:14:34.677Z,51.00
2019-05-23T12:17:03.537Z,54.30
2019-05-23T12:19:32.516Z,50.10
2019-05-23T12:22:01.387Z,52.70
2019-05-23T12:24:34.440Z,52.70
2019-05-23T12:27:03.723Z,51.70
2019-05-23T12:29:32.486Z,51.50
2019-05-23T12:32:01.744Z,54.30
2019-05-23T12:34:30.533Z,51.10
2019-05-23T12:37:18.583Z,53.80
2019-05-23T12:39:30.414Z,54.40
2019-05-23T12:41:59.397Z,49.20
2019-05-23T12:44:28.358Z,50.50
2019-05-23T12:46:57.400Z,53.20
2019-05-23T12:49:39.386Z,49.00
2019-05-23T12:52:10.310Z,48.60
2019-05-23T12:54:39.566Z,51.40
2019-05-23T12:57:11.601Z,51.60
2019-05-23T12:59:40.338Z,52.00
2019-05-23T13:02:12.771Z,54.60
2019-05-23T13:04:41.898Z,50.30
2019-05-23T13:07:11.882Z,59.20
2019-05-23T13:09:41.566Z,51.20
2019-05-23T13:12:10.612Z,51.00
2019-05-23T13:14:39.680Z,51.80
2019-05-23T13:17:09.014Z,52.20
2019-05-23T13:19:38.289Z,50.90
2019-05-23T13:22:09.540Z,55.90
2019-05-23T13:24:51.975Z,51.50
2019-05-23T13:27:09.674Z,51.70
2019-05-23T13:29:39.113Z,50.90
2019-05-23T13:32:08.410Z,48.40
2019-05-23T13:34:37.981Z,49.60
2019-05-23T13:37:09.026Z,49.70
2019-05-23T13:39:38.141Z,52.00
2019-05-23T13:42:07.035Z,47.60
2019-05-23T13:44:36.465Z,50.70
2019-05-23T13:47:05.939Z,47.80
2019-05-23T13:49:34.835Z,52.20
2019-05-23T13:52:04.964Z,53.20
2019-05-23T13:54:36.684Z,50.30
2019-05-23T13:57:08.613Z,48.80
2019-05-23T13:59:40.532Z,48.40
2019-05-23T14:02:09.935Z,50.90
2019-05-23T14:04:39.146Z,50.40
2019-05-23T14:07:11.504Z,53.20
2019-05-23T14:09:40.421Z,50.30
2019-05-23T14:12:24.742Z,55.20
2019-05-23T14:14:40.091Z,50.70
2019-05-23T14:17:30.231Z,55.30
2019-05-23T14:19:59.253Z,53.10
2019-05-23T14:22:29.154Z,51.50
2019-05-23T14:24:58.100Z,53.90
2019-05-23T14:27:35.594Z,52.90
2019-05-23T14:30:12.615Z,53.50
2019-05-23T14:32:47.025Z,51.10
2019-05-23T14:35:19.089Z,51.60
2019-05-23T14:37:49.803Z,54.70
2019-05-23T14:40:19.439Z,54.20
2019-05-23T14:43:03.498Z,52.00
2019-05-23T14:45:39.867Z,53.60
2019-05-23T14:48:14.795Z,51.60
2019-05-23T14:51:06.011Z,52.60
2019-05-23T14:53:36.798Z,54.50
2019-05-23T14:56:07.438Z,52.70
2019-05-23T14:58:36.820Z,54.30
2019-05-23T15:01:10.405Z,51.90
2019-05-23T15:03:41.982Z,54.30
2019-05-23T15:06:10.719Z,52.00
2019-05-23T15:08:50.529Z,52.90
2019-05-23T15:11:11.231Z,53.00
2019-05-23T15:13:40.527Z,53.00
2019-05-23T15:16:10.362Z,52.20
2019-05-23T15:18:39.448Z,54.00
2019-05-23T15:21:08.468Z,52.50
2019-05-23T15:23:37.316Z,54.30
2019-05-23T15:26:21.627Z,51.90
2019-05-23T15:28:37.517Z,55.20
2019-05-23T15:31:07.116Z,58.00
2019-05-23T15:33:35.906Z,55.00
2019-05-23T15:36:04.922Z,53.40
2019-05-23T15:38:34.570Z,52.50
2019-05-23T15:41:03.618Z,52.50
2019-05-23T15:43:33.015Z,53.60
2019-05-23T15:46:01.870Z,55.40
2019-05-23T15:48:31.516Z,50.90
2019-05-23T15:51:00.330Z,50.60
2019-05-23T15:53:36.558Z,51.00
2019-05-23T15:56:30.512Z,53.40
2019-05-23T15:59:14.468Z,51.70
2019-05-23T16:01:53.918Z,52.10
2019-05-23T16:04:23.022Z,53.10
2019-05-23T16:06:52.447Z,56.00
2019-05-23T16:09:29.595Z,56.10
2019-05-23T16:11:53.287Z,56.60
2019-05-23T16:14:23.603Z,55.10
2019-05-23T16:16:56.258Z,56.90
2019-05-23T16:19:23.547Z,56.50
2019-05-23T16:21:55.596Z,55.30
2019-05-23T16:24:25.586Z,52.40
2019-05-23T16:26:54.392Z,54.70
2019-05-23T16:29:23.907Z,52.00
2019-05-23T16:31:54.142Z,52.30
2019-05-23T16:34:23.327Z,51.40
2019-05-23T16:36:52.336Z,55.40
2019-05-23T16:39:21.863Z,56.60
2019-05-23T16:41:50.769Z,53.30
2019-05-23T16:44:19.586Z,54.00
2019-05-23T16:46:48.643Z,53.00
2019-05-23T16:49:17.879Z,53.20
2019-05-23T16:51:46.691Z,54.50
2019-05-23T16:54:17.526Z,51.30
2019-05-23T16:56:53.984Z,52.40
2019-05-23T16:59:32.980Z,55.00
2019-05-23T17:02:12.432Z,50.70
2019-05-23T17:05:09.735Z,52.00
2019-05-23T17:07:43.015Z,52.80
2019-05-23T17:10:20.799Z,52.70
2019-05-23T17:12:58.234Z,54.70
2019-05-23T17:15:47.649Z,53.20
2019-05-23T17:18:34.714Z,55.00
2019-05-23T17:21:19.635Z,53.10
2019-05-23T17:23:58.207Z,56.10
2019-05-23T17:26:49.220Z,57.10
2019-05-23T17:29:25.946Z,54.50
2019-05-23T17:31:56.266Z,55.50
2019-05-23T17:34:25.122Z,57.50
2019-05-23T17:36:54.279Z,55.70
2019-05-23T17:39:24.076Z,56.50
2019-05-23T17:41:53.587Z,54.90
2019-05-23T17:44:22.487Z,56.00
2019-05-23T17:46:51.247Z,55.30
2019-05-23T17:49:20.174Z,55.80
2019-05-23T17:51:49.134Z,56.10
2019-05-23T17:54:18.608Z,54.80
2019-05-23T17:56:47.786Z,57.10
2019-05-23T17:59:17.071Z,59.70
2019-05-23T18:01:46.281Z,61.30
2019-05-23T18:04:17.213Z,62.10
2019-05-23T18:06:46.980Z,63.70
2019-05-23T18:09:16.270Z,65.40
2019-05-23T18:11:45.905Z,66.70
2019-05-23T18:14:15.445Z,67.10
2019-05-23T18:16:44.371Z,69.10
2019-05-23T18:19:13.310Z,68.20
2019-05-23T18:21:43.753Z,69.20
2019-05-23T18:24:15.031Z,69.00
2019-05-23T18:26:43.865Z,68.90
2019-05-23T18:29:14.755Z,67.20
2019-05-23T18:31:45.445Z,67.40
2019-05-23T18:34:15.121Z,67.40
2019-05-23T18:36:43.937Z,67.70
2019-05-23T18:39:16.294Z,69.40
2019-05-23T18:41:45.698Z,69.60
2019-05-23T18:44:14.947Z,70.00
2019-05-23T18:46:47.250Z,71.40
2019-05-23T18:49:16.339Z,72.40
2019-05-23T18:51:45.677Z,73.40
2019-05-23T18:54:14.522Z,73.70
2019-05-23T18:56:43.344Z,73.60
2019-05-23T18:59:13.425Z,74.90
2019-05-23T19:01:42.606Z,75.30
2019-05-23T19:04:12.079Z,75.30
2019-05-23T19:06:41.250Z,75.10
2019-05-23T19:09:14.016Z,74.20
2019-05-23T19:11:43.098Z,75.20
2019-05-23T19:14:11.887Z,76.60
2019-05-23T19:16:41.406Z,77.60
2019-05-23T19:19:10.563Z,79.00
2019-05-23T19:21:39.526Z,80.00
2019-05-23T19:24:08.447Z,80.90
2019-05-23T19:26:37.471Z,80.80
2019-05-23T19:29:07.666Z,81.80
2019-05-23T19:31:37.379Z,82.60
2019-05-23T19:34:06.259Z,83.80
2019-05-23T19:36:35.084Z,85.00
2019-05-23T19:39:06.294Z,85.90
2019-05-23T19:41:37.886Z,85.50
2019-05-23T19:44:06.186Z,85.90
2019-05-23T19:46:35.865Z,86.60
2019-05-23T19:49:05.954Z,88.10
2019-05-23T19:51:37.243Z,89.20
2019-05-23T19:54:07.171Z,90.10
2019-05-23T19:56:36.926Z,90.70
2019-05-23T19:59:07.036Z,90.90
2019-05-23T20:01:47.184Z,91.10
2019-05-23T20:04:16.567Z,91.60
2019-05-23T20:06:46.726Z,92.20
2019-05-23T20:09:19.962Z,92.30
2019-05-23T20:11:54.546Z,92.80
2019-05-23T20:14:20.936Z,93.50
2019-05-23T20:16:49.906Z,93.80
2019-05-23T20:19:19.147Z,94.10
2019-05-23T20:21:48.455Z,94.40
2019-05-23T20:24:17.294Z,94.70
2019-05-23T20:26:46.093Z,94.60
2019-05-23T20:29:15.270Z,94.90
2019-05-23T20:31:47.755Z,95.30
2019-05-23T20:34:14.910Z,95.60
2019-05-23T20:36:43.650Z,95.90
2019-05-23T20:39:11.813Z,96.00
2019-05-23T20:41:41.139Z,96.40
2019-05-23T20:44:10.603Z,96.70
2019-05-23T20:46:39.639Z,96.80
2019-05-23T20:49:09.023Z,97.20
2019-05-23T20:51:37.819Z,97.30
2019-05-23T20:54:06.618Z,97.40
2019-05-23T20:56:35.630Z,97.70
2019-05-23T20:59:05.317Z,98.00
2019-05-23T21:01:38.254Z,98.30
2019-05-23T21:04:07.121Z,98.40
2019-05-23T21:06:36.219Z,98.80
2019-05-23T21:09:07.574Z,98.80
2019-05-23T21:11:36.710Z,99.40
2019-05-23T21:14:05.697Z,99.40
2019-05-23T21:16:34.602Z,99.60
2019-05-23T21:19:03.717Z,99.70
2019-05-23T21:21:32.876Z,99.90
2019-05-23T21:24:01.617Z,99.70
2019-05-23T21:26:30.634Z,99.70
2019-05-23T21:28:59.635Z,99.50
2019-05-23T21:31:28.646Z,99.70
2019-05-23T21:33:57.541Z,99.70
2019-05-23T21:36:26.292Z,99.60
2019-05-23T21:38:55.111Z,99.40
2019-05-23T21:41:23.858Z,99.50
2019-05-23T21:43:54.598Z,99.80
2019-05-23T21:46:23.577Z,99.90
2019-05-23T21:48:52.890Z,99.90
2019-05-23T21:51:21.880Z,99.90
2019-05-23T21:53:50.933Z,99.90
2019-05-23T21:56:19.951Z,99.90
2019-05-23T21:58:48.769Z,99.90
2019-05-23T22:01:37.274Z,99.90
2019-05-23T22:04:34.652Z,99.90
2019-05-23T22:07:07.663Z,99.90
2019-05-23T22:09:36.633Z,99.90
2019-05-23T22:12:06.851Z,99.90
2019-05-23T22:14:36.758Z,99.90
2019-05-23T22:17:06.375Z,99.90
2019-05-23T22:19:35.881Z,99.90
2019-05-23T22:22:05.674Z,99.90
2019-05-23T22:24:34.641Z,99.90
2019-05-23T22:27:04.609Z,99.90
2019-05-23T22:29:33.329Z,99.90
2019-05-23T22:32:02.433Z,99.90
2019-05-23T22:34:38.073Z,99.90
2019-05-23T22:37:19.901Z,99.90
2019-05-23T22:39:49.034Z,99.90
2019-05-23T22:42:19.062Z,99.90
2019-05-23T22:44:48.060Z,99.90
2019-05-23T22:47:17.096Z,99.90
2019-05-23T22:49:45.922Z,99.90
2019-05-23T22:52:14.935Z,99.90
2019-05-23T22:54:43.677Z,99.90
2019-05-23T22:57:13.203Z,99.90
2019-05-23T22:59:42.658Z,99.90
2019-05-23T23:02:16.049Z,99.90
2019-05-23T23:04:45.153Z,99.90
2019-05-23T23:07:14.122Z,99.90
2019-05-23T23:09:42.926Z,99.90
2019-05-23T23:12:12.308Z,99.90
2019-05-23T23:14:41.041Z,99.90
2019-05-23T23:17:09.961Z,99.90
2019-05-23T23:19:39.122Z,99.90
2019-05-23T23:22:10.340Z,99.90
2019-05-23T23:24:39.318Z,99.90
2019-05-23T23:27:08.214Z,99.90
2019-05-23T23:29:37.329Z,99.90
2019-05-23T23:32:06.508Z,99.90
2019-05-23T23:34:35.321Z,99.90
2019-05-23T23:37:04.383Z,99.90
2019-05-23T23:39:33.511Z,99.90
2019-05-23T23:42:02.279Z,99.90
2019-05-23T23:44:36.609Z,99.90
2019-05-23T23:47:24.636Z,99.90
2019-05-23T23:50:11.386Z,99.90
2019-05-23T23:52:58.517Z,99.90
2019-05-23T23:55:45.305Z,99.90
2019-05-23T23:58:13.507Z,99.90
